sensor_id;sensor_type;location;lat;lon;timestamp;P1;durP1;ratioP1;P2;durP2;ratioP2
422;SDS011;198;48.752;9.180;2023-11-19T00:01:32;7.63;;;2.87;;
422;SDS011;198;48.752;9.180;2023-11-19T00:03:57;6.77;;;3.10;;
422;SDS011;198;48.752;9.180;2023-11-19T00:06:23;5.70;;;2.70;;
422;SDS011;198;48.752;9.180;2023-11-19T00:08:50;9.53;;;2.80;;
422;SDS011;198;48.752;9.180;2023-11-19T00:11:15;5.50;;;3.90;;
422;SDS011;198;48.752;9.180;2023-11-19T00:13:41;5.53;;;3.30;;
422;SDS011;198;48.752;9.180;2023-11-19T00:16:08;5.80;;;2.83;;
422;SDS011;198;48.752;9.180;2023-11-19T00:18:34;8.47;;;3.07;;
422;SDS011;198;48.752;9.180;2023-11-19T00:21:01;9.67;;;4.00;;
422;SDS011;198;48.752;9.180;2023-11-19T00:23:27;5.90;;;3.50;;
422;SDS011;198;48.752;9.180;2023-11-19T00:25:53;18.60;;;3.70;;
422;SDS011;198;48.752;9.180;2023-11-19T00:28:18;7.00;;;4.00;;
422;SDS011;198;48.752;9.180;2023-11-19T00:30:44;7.47;;;3.23;;
422;SDS011;198;48.752;9.180;2023-11-19T00:33:09;5.90;;;3.43;;
422;SDS011;198;48.752;9.180;2023-11-19T00:35:35;7.37;;;3.40;;
422;SDS011;198;48.752;9.180;2023-11-19T00:38:00;8.50;;;3.70;;
422;SDS011;198;48.752;9.180;2023-11-19T00:40:27;13.23;;;4.10;;
422;SDS011;198;48.752;9.180;2023-11-19T00:42:53;10.90;;;3.90;;
422;SDS011;198;48.752;9.180;2023-11-19T00:45:19;10.00;;;4.63;;
422;SDS011;198;48.752;9.180;2023-11-19T00:47:44;11.13;;;4.40;;
422;SDS011;198;48.752;9.180;2023-11-19T00:50:10;8.20;;;3.53;;
422;SDS011;198;48.752;9.180;2023-11-19T00:52:36;7.37;;;4.03;;
422;SDS011;198;48.752;9.180;2023-11-19T00:55:02;9.83;;;3.83;;
422;SDS011;198;48.752;9.180;2023-11-19T00:57:29;7.80;;;4.23;;
422;SDS011;198;48.752;9.180;2023-11-19T00:59:55;12.50;;;5.27;;
422;SDS011;198;48.752;9.180;2023-11-19T01:02:20;7.00;;;4.00;;
422;SDS011;198;48.752;9.180;2023-11-19T01:04:46;7.13;;;4.13;;
422;SDS011;198;48.752;9.180;2023-11-19T01:07:11;9.03;;;4.50;;
422;SDS011;198;48.752;9.180;2023-11-19T01:09:37;7.70;;;3.53;;
422;SDS011;198;48.752;9.180;2023-11-19T01:12:03;7.50;;;4.33;;
422;SDS011;198;48.752;9.180;2023-11-19T01:14:29;7.83;;;2.83;;
422;SDS011;198;48.752;9.180;2023-11-19T01:16:55;5.10;;;3.23;;
422;SDS011;198;48.752;9.180;2023-11-19T01:19:21;6.07;;;3.33;;
422;SDS011;198;48.752;9.180;2023-11-19T01:21:47;4.63;;;3.00;;
422;SDS011;198;48.752;9.180;2023-11-19T01:24:13;16.27;;;3.77;;
422;SDS011;198;48.752;9.180;2023-11-19T01:26:39;7.57;;;3.53;;
422;SDS011;198;48.752;9.180;2023-11-19T01:29:10;3.10;;;2.10;;
422;SDS011;198;48.752;9.180;2023-11-19T01:31:42;2.50;;;1.70;;
422;SDS011;198;48.752;9.180;2023-11-19T01:34:08;2.47;;;1.20;;
422;SDS011;198;48.752;9.180;2023-11-19T01:36:33;3.27;;;1.80;;
422;SDS011;198;48.752;9.180;2023-11-19T01:38:59;1.70;;;1.53;;
422;SDS011;198;48.752;9.180;2023-11-19T01:41:25;2.70;;;0.90;;
422;SDS011;198;48.752;9.180;2023-11-19T01:43:50;1.27;;;1.20;;
422;SDS011;198;48.752;9.180;2023-11-19T01:46:16;3.13;;;1.13;;
422;SDS011;198;48.752;9.180;2023-11-19T01:48:45;1.63;;;1.27;;
422;SDS011;198;48.752;9.180;2023-11-19T01:51:14;3.87;;;1.20;;
422;SDS011;198;48.752;9.180;2023-11-19T01:53:41;1.10;;;1.00;;
422;SDS011;198;48.752;9.180;2023-11-19T01:56:08;1.13;;;1.10;;
422;SDS011;198;48.752;9.180;2023-11-19T01:58:36;1.40;;;0.90;;
422;SDS011;198;48.752;9.180;2023-11-19T02:01:04;1.00;;;0.90;;
422;SDS011;198;48.752;9.180;2023-11-19T02:03:31;0.93;;;0.83;;
422;SDS011;198;48.752;9.180;2023-11-19T02:05:58;1.07;;;0.87;;
422;SDS011;198;48.752;9.180;2023-11-19T02:08:24;0.90;;;0.80;;
422;SDS011;198;48.752;9.180;2023-11-19T02:10:51;1.30;;;0.97;;
422;SDS011;198;48.752;9.180;2023-11-19T02:13:17;0.70;;;0.60;;
422;SDS011;198;48.752;9.180;2023-11-19T02:15:43;0.70;;;0.70;;
422;SDS011;198;48.752;9.180;2023-11-19T02:18:21;0.67;;;0.63;;
422;SDS011;198;48.752;9.180;2023-11-19T02:20:53;0.70;;;0.60;;
422;SDS011;198;48.752;9.180;2023-11-19T02:23:23;0.70;;;0.60;;
422;SDS011;198;48.752;9.180;2023-11-19T02:28:43;1.33;;;0.70;;
422;SDS011;198;48.752;9.180;2023-11-19T02:31:08;0.73;;;0.63;;
422;SDS011;198;48.752;9.180;2023-11-19T02:33:35;0.60;;;0.50;;
422;SDS011;198;48.752;9.180;2023-11-19T02:36:02;2.20;;;0.60;;
422;SDS011;198;48.752;9.180;2023-11-19T02:38:29;0.50;;;0.40;;
422;SDS011;198;48.752;9.180;2023-11-19T02:40:55;1.70;;;0.70;;
422;SDS011;198;48.752;9.180;2023-11-19T02:43:21;0.50;;;0.40;;
422;SDS011;198;48.752;9.180;2023-11-19T02:45:47;9.00;;;1.03;;
422;SDS011;198;48.752;9.180;2023-11-19T02:48:13;0.90;;;0.50;;
422;SDS011;198;48.752;9.180;2023-11-19T02:50:40;0.40;;;0.40;;
422;SDS011;198;48.752;9.180;2023-11-19T02:53:09;0.70;;;0.60;;
422;SDS011;198;48.752;9.180;2023-11-19T02:55:35;18.57;;;1.00;;
422;SDS011;198;48.752;9.180;2023-11-19T02:58:03;2.43;;;0.43;;
422;SDS011;198;48.752;9.180;2023-11-19T03:00:45;0.60;;;0.50;;
422;SDS011;198;48.752;9.180;2023-11-19T03:03:17;0.80;;;0.70;;
422;SDS011;198;48.752;9.180;2023-11-19T03:05:45;0.70;;;0.50;;
422;SDS011;198;48.752;9.180;2023-11-19T03:08:11;0.93;;;0.70;;
422;SDS011;198;48.752;9.180;2023-11-19T03:10:37;0.67;;;0.50;;
422;SDS011;198;48.752;9.180;2023-11-19T03:13:03;0.60;;;0.50;;
422;SDS011;198;48.752;9.180;2023-11-19T03:15:29;0.50;;;0.40;;
422;SDS011;198;48.752;9.180;2023-11-19T03:17:55;0.50;;;0.50;;
422;SDS011;198;48.752;9.180;2023-11-19T03:20:20;0.87;;;0.77;;
422;SDS011;198;48.752;9.180;2023-11-19T03:22:46;0.40;;;0.40;;
422;SDS011;198;48.752;9.180;2023-11-19T03:25:11;0.60;;;0.60;;
422;SDS011;198;48.752;9.180;2023-11-19T03:27:38;0.77;;;0.60;;
422;SDS011;198;48.752;9.180;2023-11-19T03:30:04;8.43;;;0.70;;
422;SDS011;198;48.752;9.180;2023-11-19T03:32:31;0.60;;;0.60;;
422;SDS011;198;48.752;9.180;2023-11-19T03:34:57;0.60;;;0.47;;
422;SDS011;198;48.752;9.180;2023-11-19T03:37:24;0.50;;;0.40;;
422;SDS011;198;48.752;9.180;2023-11-19T03:39:50;3.73;;;0.77;;
422;SDS011;198;48.752;9.180;2023-11-19T03:42:17;4.30;;;0.83;;
422;SDS011;198;48.752;9.180;2023-11-19T03:44:44;3.90;;;0.87;;
422;SDS011;198;48.752;9.180;2023-11-19T03:47:09;0.80;;;0.50;;
422;SDS011;198;48.752;9.180;2023-11-19T03:49:35;1.70;;;0.67;;
422;SDS011;198;48.752;9.180;2023-11-19T03:52:01;1.37;;;0.50;;
422;SDS011;198;48.752;9.180;2023-11-19T03:54:26;0.67;;;0.60;;
422;SDS011;198;48.752;9.180;2023-11-19T03:56:52;1.27;;;0.60;;
422;SDS011;198;48.752;9.180;2023-11-19T03:59:18;1.20;;;0.77;;
422;SDS011;198;48.752;9.180;2023-11-19T04:01:45;0.50;;;0.50;;
422;SDS011;198;48.752;9.180;2023-11-19T04:04:11;0.70;;;0.60;;
422;SDS011;198;48.752;9.180;2023-11-19T04:06:37;0.70;;;0.60;;
422;SDS011;198;48.752;9.180;2023-11-19T04:09:02;2.10;;;0.50;;
422;SDS011;198;48.752;9.180;2023-11-19T04:11:28;0.60;;;0.50;;
422;SDS011;198;48.752;9.180;2023-11-19T04:13:54;0.60;;;0.50;;
422;SDS011;198;48.752;9.180;2023-11-19T04:16:19;1.13;;;0.57;;
422;SDS011;198;48.752;9.180;2023-11-19T04:18:52;0.60;;;0.50;;
422;SDS011;198;48.752;9.180;2023-11-19T04:21:18;0.50;;;0.50;;
422;SDS011;198;48.752;9.180;2023-11-19T04:23:43;0.60;;;0.50;;
422;SDS011;198;48.752;9.180;2023-11-19T04:26:09;0.60;;;0.50;;
422;SDS011;198;48.752;9.180;2023-11-19T04:28:34;0.60;;;0.50;;
422;SDS011;198;48.752;9.180;2023-11-19T04:31:00;0.47;;;0.43;;
422;SDS011;198;48.752;9.180;2023-11-19T04:33:25;0.50;;;0.40;;
422;SDS011;198;48.752;9.180;2023-11-19T04:35:51;0.40;;;0.40;;
422;SDS011;198;48.752;9.180;2023-11-19T04:38:16;0.60;;;0.50;;
422;SDS011;198;48.752;9.180;2023-11-19T04:40:42;0.63;;;0.60;;
422;SDS011;198;48.752;9.180;2023-11-19T04:43:07;0.70;;;0.47;;
422;SDS011;198;48.752;9.180;2023-11-19T04:45:33;0.60;;;0.50;;
422;SDS011;198;48.752;9.180;2023-11-19T04:47:59;0.53;;;0.50;;
422;SDS011;198;48.752;9.180;2023-11-19T04:50:24;0.50;;;0.50;;
422;SDS011;198;48.752;9.180;2023-11-19T04:52:52;0.60;;;0.50;;
422;SDS011;198;48.752;9.180;2023-11-19T04:55:19;1.90;;;0.80;;
422;SDS011;198;48.752;9.180;2023-11-19T04:57:44;2.00;;;0.50;;
422;SDS011;198;48.752;9.180;2023-11-19T05:00:10;0.57;;;0.43;;
422;SDS011;198;48.752;9.180;2023-11-19T05:02:36;0.53;;;0.43;;
422;SDS011;198;48.752;9.180;2023-11-19T05:05:02;0.70;;;0.60;;
422;SDS011;198;48.752;9.180;2023-11-19T05:07:29;0.70;;;0.60;;
422;SDS011;198;48.752;9.180;2023-11-19T05:09:55;1.00;;;0.60;;
422;SDS011;198;48.752;9.180;2023-11-19T05:12:20;0.80;;;0.70;;
422;SDS011;198;48.752;9.180;2023-11-19T05:14:47;1.07;;;0.60;;
422;SDS011;198;48.752;9.180;2023-11-19T05:17:15;0.70;;;0.60;;
422;SDS011;198;48.752;9.180;2023-11-19T05:19:42;0.63;;;0.57;;
422;SDS011;198;48.752;9.180;2023-11-19T05:22:08;0.53;;;0.43;;
422;SDS011;198;48.752;9.180;2023-11-19T05:24:33;0.60;;;0.50;;
422;SDS011;198;48.752;9.180;2023-11-19T05:27:00;0.60;;;0.50;;
422;SDS011;198;48.752;9.180;2023-11-19T05:29:26;0.80;;;0.70;;
422;SDS011;198;48.752;9.180;2023-11-19T05:31:52;0.90;;;0.80;;
422;SDS011;198;48.752;9.180;2023-11-19T05:34:20;0.60;;;0.57;;
422;SDS011;198;48.752;9.180;2023-11-19T05:36:46;0.50;;;0.50;;
422;SDS011;198;48.752;9.180;2023-11-19T05:39:11;0.60;;;0.60;;
422;SDS011;198;48.752;9.180;2023-11-19T05:41:37;0.70;;;0.60;;
422;SDS011;198;48.752;9.180;2023-11-19T05:44:02;0.80;;;0.70;;
422;SDS011;198;48.752;9.180;2023-11-19T05:46:28;0.70;;;0.60;;
422;SDS011;198;48.752;9.180;2023-11-19T05:48:53;0.50;;;0.40;;
422;SDS011;198;48.752;9.180;2023-11-19T05:51:19;0.80;;;0.53;;
422;SDS011;198;48.752;9.180;2023-11-19T05:53:45;0.60;;;0.50;;
422;SDS011;198;48.752;9.180;2023-11-19T05:56:10;0.50;;;0.40;;
422;SDS011;198;48.752;9.180;2023-11-19T05:58:36;0.90;;;0.80;;
422;SDS011;198;48.752;9.180;2023-11-19T06:01:04;0.67;;;0.57;;
422;SDS011;198;48.752;9.180;2023-11-19T06:03:32;1.33;;;0.60;;
422;SDS011;198;48.752;9.180;2023-11-19T06:05:58;0.80;;;0.67;;
422;SDS011;198;48.752;9.180;2023-11-19T06:08:23;0.57;;;0.50;;
422;SDS011;198;48.752;9.180;2023-11-19T06:10:49;0.70;;;0.60;;
422;SDS011;198;48.752;9.180;2023-11-19T06:13:16;0.90;;;0.60;;
422;SDS011;198;48.752;9.180;2023-11-19T06:15:42;0.70;;;0.60;;
422;SDS011;198;48.752;9.180;2023-11-19T06:18:08;0.60;;;0.60;;
422;SDS011;198;48.752;9.180;2023-11-19T06:20:33;1.60;;;0.80;;
422;SDS011;198;48.752;9.180;2023-11-19T06:22:59;1.90;;;0.77;;
422;SDS011;198;48.752;9.180;2023-11-19T06:25:25;3.60;;;0.70;;
422;SDS011;198;48.752;9.180;2023-11-19T06:27:51;0.67;;;0.57;;
422;SDS011;198;48.752;9.180;2023-11-19T06:30:17;1.53;;;0.60;;
422;SDS011;198;48.752;9.180;2023-11-19T06:32:43;0.60;;;0.60;;
422;SDS011;198;48.752;9.180;2023-11-19T06:35:08;0.70;;;0.60;;
422;SDS011;198;48.752;9.180;2023-11-19T06:37:38;1.80;;;0.70;;
422;SDS011;198;48.752;9.180;2023-11-19T06:40:05;3.93;;;0.67;;
422;SDS011;198;48.752;9.180;2023-11-19T06:42:31;0.60;;;0.50;;
422;SDS011;198;48.752;9.180;2023-11-19T06:44:57;0.93;;;0.83;;
422;SDS011;198;48.752;9.180;2023-11-19T06:47:26;3.90;;;0.87;;
422;SDS011;198;48.752;9.180;2023-11-19T06:49:52;0.57;;;0.53;;
422;SDS011;198;48.752;9.180;2023-11-19T06:52:18;0.80;;;0.70;;
422;SDS011;198;48.752;9.180;2023-11-19T06:54:44;0.90;;;0.80;;
422;SDS011;198;48.752;9.180;2023-11-19T06:57:10;0.80;;;0.60;;
422;SDS011;198;48.752;9.180;2023-11-19T06:59:36;0.80;;;0.67;;
422;SDS011;198;48.752;9.180;2023-11-19T07:02:02;2.50;;;0.63;;
422;SDS011;198;48.752;9.180;2023-11-19T07:04:28;0.70;;;0.60;;
422;SDS011;198;48.752;9.180;2023-11-19T07:06:53;1.13;;;0.77;;
422;SDS011;198;48.752;9.180;2023-11-19T07:09:18;0.87;;;0.77;;
422;SDS011;198;48.752;9.180;2023-11-19T07:11:44;0.67;;;0.63;;
422;SDS011;198;48.752;9.180;2023-11-19T07:14:11;0.70;;;0.70;;
422;SDS011;198;48.752;9.180;2023-11-19T07:16:37;0.67;;;0.60;;
422;SDS011;198;48.752;9.180;2023-11-19T07:19:03;0.80;;;0.70;;
422;SDS011;198;48.752;9.180;2023-11-19T07:21:30;0.70;;;0.60;;
422;SDS011;198;48.752;9.180;2023-11-19T07:23:56;1.60;;;0.70;;
422;SDS011;198;48.752;9.180;2023-11-19T07:26:22;0.90;;;0.80;;
422;SDS011;198;48.752;9.180;2023-11-19T07:28:48;0.80;;;0.77;;
422;SDS011;198;48.752;9.180;2023-11-19T07:31:14;0.80;;;0.70;;
422;SDS011;198;48.752;9.180;2023-11-19T07:33:40;0.90;;;0.80;;
422;SDS011;198;48.752;9.180;2023-11-19T07:36:09;0.70;;;0.60;;
422;SDS011;198;48.752;9.180;2023-11-19T07:38:35;0.70;;;0.60;;
422;SDS011;198;48.752;9.180;2023-11-19T07:41:00;1.50;;;0.93;;
422;SDS011;198;48.752;9.180;2023-11-19T07:43:26;0.80;;;0.77;;
422;SDS011;198;48.752;9.180;2023-11-19T07:45:51;1.50;;;0.77;;
422;SDS011;198;48.752;9.180;2023-11-19T07:48:17;1.73;;;1.10;;
422;SDS011;198;48.752;9.180;2023-11-19T07:50:47;2.20;;;0.97;;
422;SDS011;198;48.752;9.180;2023-11-19T07:53:15;0.83;;;0.73;;
422;SDS011;198;48.752;9.180;2023-11-19T07:55:43;0.70;;;0.60;;
422;SDS011;198;48.752;9.180;2023-11-19T07:58:10;0.73;;;0.63;;
422;SDS011;198;48.752;9.180;2023-11-19T08:00:35;0.70;;;0.60;;
422;SDS011;198;48.752;9.180;2023-11-19T08:03:02;0.60;;;0.50;;
422;SDS011;198;48.752;9.180;2023-11-19T08:05:28;1.00;;;0.90;;
422;SDS011;198;48.752;9.180;2023-11-19T08:07:53;1.17;;;0.80;;
422;SDS011;198;48.752;9.180;2023-11-19T08:10:19;2.00;;;0.77;;
422;SDS011;198;48.752;9.180;2023-11-19T08:12:45;0.60;;;0.50;;
422;SDS011;198;48.752;9.180;2023-11-19T08:15:10;1.13;;;0.70;;
422;SDS011;198;48.752;9.180;2023-11-19T08:17:36;1.30;;;0.90;;
422;SDS011;198;48.752;9.180;2023-11-19T08:20:02;1.67;;;0.80;;
422;SDS011;198;48.752;9.180;2023-11-19T08:22:29;0.70;;;0.60;;
422;SDS011;198;48.752;9.180;2023-11-19T08:24:55;4.87;;;0.70;;
422;SDS011;198;48.752;9.180;2023-11-19T08:27:21;0.90;;;0.63;;
422;SDS011;198;48.752;9.180;2023-11-19T08:29:52;0.77;;;0.60;;
422;SDS011;198;48.752;9.180;2023-11-19T08:32:24;20.70;;;1.90;;
422;SDS011;198;48.752;9.180;2023-11-19T08:34:53;1.60;;;0.80;;
422;SDS011;198;48.752;9.180;2023-11-19T08:37:19;0.70;;;0.60;;
422;SDS011;198;48.752;9.180;2023-11-19T08:39:46;0.83;;;0.73;;
422;SDS011;198;48.752;9.180;2023-11-19T08:42:12;0.80;;;0.53;;
422;SDS011;198;48.752;9.180;2023-11-19T08:44:38;0.80;;;0.70;;
422;SDS011;198;48.752;9.180;2023-11-19T08:47:04;2.10;;;0.80;;
422;SDS011;198;48.752;9.180;2023-11-19T08:49:29;2.87;;;0.60;;
422;SDS011;198;48.752;9.180;2023-11-19T08:51:55;0.70;;;0.60;;
422;SDS011;198;48.752;9.180;2023-11-19T08:54:20;2.20;;;0.80;;
422;SDS011;198;48.752;9.180;2023-11-19T08:56:47;0.87;;;0.60;;
422;SDS011;198;48.752;9.180;2023-11-19T08:59:13;1.00;;;0.90;;
422;SDS011;198;48.752;9.180;2023-11-19T09:01:40;0.60;;;0.60;;
422;SDS011;198;48.752;9.180;2023-11-19T09:04:07;0.67;;;0.63;;
422;SDS011;198;48.752;9.180;2023-11-19T09:06:33;0.70;;;0.70;;
422;SDS011;198;48.752;9.180;2023-11-19T09:09:00;0.67;;;0.63;;
422;SDS011;198;48.752;9.180;2023-11-19T09:11:28;1.00;;;0.90;;
422;SDS011;198;48.752;9.180;2023-11-19T09:13:54;0.80;;;0.70;;
422;SDS011;198;48.752;9.180;2023-11-19T09:16:19;3.67;;;0.70;;
422;SDS011;198;48.752;9.180;2023-11-19T09:18:45;1.37;;;0.53;;
422;SDS011;198;48.752;9.180;2023-11-19T09:21:10;0.70;;;0.60;;
422;SDS011;198;48.752;9.180;2023-11-19T09:23:37;2.57;;;0.77;;
422;SDS011;198;48.752;9.180;2023-11-19T09:26:13;0.70;;;0.60;;
422;SDS011;198;48.752;9.180;2023-11-19T09:28:38;4.40;;;1.00;;
422;SDS011;198;48.752;9.180;2023-11-19T09:31:12;0.90;;;0.80;;
422;SDS011;198;48.752;9.180;2023-11-19T09:33:38;0.87;;;0.77;;
422;SDS011;198;48.752;9.180;2023-11-19T09:36:04;0.70;;;0.60;;
422;SDS011;198;48.752;9.180;2023-11-19T09:38:30;0.93;;;0.83;;
422;SDS011;198;48.752;9.180;2023-11-19T09:40:57;0.70;;;0.70;;
422;SDS011;198;48.752;9.180;2023-11-19T09:43:26;0.70;;;0.70;;
422;SDS011;198;48.752;9.180;2023-11-19T09:45:53;2.20;;;0.57;;
422;SDS011;198;48.752;9.180;2023-11-19T09:48:21;1.13;;;0.80;;
422;SDS011;198;48.752;9.180;2023-11-19T09:50:49;0.90;;;0.83;;
422;SDS011;198;48.752;9.180;2023-11-19T09:53:16;0.80;;;0.70;;
422;SDS011;198;48.752;9.180;2023-11-19T09:55:42;0.97;;;0.87;;
422;SDS011;198;48.752;9.180;2023-11-19T09:58:08;0.93;;;0.80;;
422;SDS011;198;48.752;9.180;2023-11-19T10:00:36;0.63;;;0.53;;
422;SDS011;198;48.752;9.180;2023-11-19T10:03:02;3.80;;;0.87;;
422;SDS011;198;48.752;9.180;2023-11-19T10:05:30;1.53;;;0.90;;
422;SDS011;198;48.752;9.180;2023-11-19T10:07:55;2.10;;;1.17;;
422;SDS011;198;48.752;9.180;2023-11-19T10:10:21;1.80;;;1.10;;
422;SDS011;198;48.752;9.180;2023-11-19T10:12:47;1.37;;;0.73;;
422;SDS011;198;48.752;9.180;2023-11-19T10:15:22;1.00;;;0.63;;
422;SDS011;198;48.752;9.180;2023-11-19T10:17:52;1.73;;;1.40;;
422;SDS011;198;48.752;9.180;2023-11-19T10:20:21;1.70;;;0.80;;
422;SDS011;198;48.752;9.180;2023-11-19T10:22:48;5.27;;;1.13;;
422;SDS011;198;48.752;9.180;2023-11-19T10:25:23;1.00;;;0.73;;
422;SDS011;198;48.752;9.180;2023-11-19T10:27:52;0.90;;;0.60;;
422;SDS011;198;48.752;9.180;2023-11-19T10:30:26;1.47;;;0.63;;
422;SDS011;198;48.752;9.180;2023-11-19T10:33:05;2.40;;;0.70;;
422;SDS011;198;48.752;9.180;2023-11-19T10:35:36;0.93;;;0.83;;
422;SDS011;198;48.752;9.180;2023-11-19T10:38:18;1.07;;;0.70;;
422;SDS011;198;48.752;9.180;2023-11-19T10:40:43;1.03;;;0.63;;
422;SDS011;198;48.752;9.180;2023-11-19T16:16:41;5.07;;;0.80;;
422;SDS011;198;48.752;9.180;2023-11-19T16:19:07;1.40;;;0.70;;
422;SDS011;198;48.752;9.180;2023-11-19T16:21:33;1.77;;;1.00;;
422;SDS011;198;48.752;9.180;2023-11-19T16:24:02;2.07;;;0.90;;
422;SDS011;198;48.752;9.180;2023-11-19T16:26:28;1.10;;;0.80;;
422;SDS011;198;48.752;9.180;2023-11-19T16:28:55;3.00;;;1.20;;
422;SDS011;198;48.752;9.180;2023-11-19T16:31:24;0.67;;;0.63;;
422;SDS011;198;48.752;9.180;2023-11-19T16:33:49;5.70;;;1.30;;
422;SDS011;198;48.752;9.180;2023-11-19T16:36:14;4.43;;;1.27;;
422;SDS011;198;48.752;9.180;2023-11-19T16:38:40;1.17;;;1.00;;
422;SDS011;198;48.752;9.180;2023-11-19T16:41:06;7.40;;;1.23;;
422;SDS011;198;48.752;9.180;2023-11-19T16:43:32;2.93;;;1.30;;
422;SDS011;198;48.752;9.180;2023-11-19T16:45:58;2.03;;;1.30;;
422;SDS011;198;48.752;9.180;2023-11-19T16:48:23;2.40;;;1.33;;
422;SDS011;198;48.752;9.180;2023-11-19T16:50:49;1.90;;;0.90;;
422;SDS011;198;48.752;9.180;2023-11-19T16:53:15;1.40;;;1.00;;
422;SDS011;198;48.752;9.180;2023-11-19T16:55:41;3.10;;;1.50;;
422;SDS011;198;48.752;9.180;2023-11-19T16:58:07;4.43;;;1.40;;
422;SDS011;198;48.752;9.180;2023-11-19T17:00:34;3.00;;;2.00;;
422;SDS011;198;48.752;9.180;2023-11-19T17:03:02;3.77;;;1.20;;
422;SDS011;198;48.752;9.180;2023-11-19T17:05:29;5.50;;;1.40;;
422;SDS011;198;48.752;9.180;2023-11-19T17:07:55;1.53;;;1.13;;
422;SDS011;198;48.752;9.180;2023-11-19T17:10:20;1.70;;;1.40;;
422;SDS011;198;48.752;9.180;2023-11-19T17:12:46;3.60;;;1.53;;
422;SDS011;198;48.752;9.180;2023-11-19T17:15:11;5.53;;;1.57;;
422;SDS011;198;48.752;9.180;2023-11-19T17:17:37;1.93;;;1.20;;
422;SDS011;198;48.752;9.180;2023-11-19T17:20:03;4.60;;;1.50;;
422;SDS011;198;48.752;9.180;2023-11-19T17:22:31;1.50;;;1.33;;
422;SDS011;198;48.752;9.180;2023-11-19T17:24:58;7.53;;;1.63;;
422;SDS011;198;48.752;9.180;2023-11-19T17:27:25;7.03;;;1.33;;
422;SDS011;198;48.752;9.180;2023-11-19T17:29:52;2.10;;;1.10;;
422;SDS011;198;48.752;9.180;2023-11-19T17:32:19;2.90;;;1.30;;
422;SDS011;198;48.752;9.180;2023-11-19T17:34:44;6.60;;;1.23;;
422;SDS011;198;48.752;9.180;2023-11-19T17:37:10;2.63;;;1.20;;
422;SDS011;198;48.752;9.180;2023-11-19T17:39:35;4.77;;;1.13;;
422;SDS011;198;48.752;9.180;2023-11-19T17:42:01;1.97;;;0.97;;
422;SDS011;198;48.752;9.180;2023-11-19T17:44:27;2.47;;;1.27;;
422;SDS011;198;48.752;9.180;2023-11-19T17:46:52;5.73;;;1.27;;
422;SDS011;198;48.752;9.180;2023-11-19T17:49:17;4.97;;;1.43;;
422;SDS011;198;48.752;9.180;2023-11-19T17:51:44;1.10;;;0.87;;
422;SDS011;198;48.752;9.180;2023-11-19T17:54:09;4.40;;;1.00;;
422;SDS011;198;48.752;9.180;2023-11-19T17:56:35;5.30;;;1.43;;
422;SDS011;198;48.752;9.180;2023-11-19T17:59:01;14.57;;;1.43;;
422;SDS011;198;48.752;9.180;2023-11-19T18:01:26;1.50;;;1.30;;
422;SDS011;198;48.752;9.180;2023-11-19T18:03:52;1.60;;;1.20;;
422;SDS011;198;48.752;9.180;2023-11-19T18:06:17;3.87;;;1.00;;
422;SDS011;198;48.752;9.180;2023-11-19T18:08:43;2.50;;;1.13;;
422;SDS011;198;48.752;9.180;2023-11-19T18:11:09;3.87;;;1.80;;
422;SDS011;198;48.752;9.180;2023-11-19T18:13:38;3.57;;;1.20;;
422;SDS011;198;48.752;9.180;2023-11-19T18:16:04;2.10;;;1.40;;
422;SDS011;198;48.752;9.180;2023-11-19T18:18:30;1.87;;;1.10;;
422;SDS011;198;48.752;9.180;2023-11-19T18:20:56;6.13;;;2.10;;
422;SDS011;198;48.752;9.180;2023-11-19T18:23:21;3.70;;;0.93;;
422;SDS011;198;48.752;9.180;2023-11-19T18:25:47;3.13;;;1.17;;
422;SDS011;198;48.752;9.180;2023-11-19T18:28:14;2.33;;;1.03;;
422;SDS011;198;48.752;9.180;2023-11-19T18:30:42;2.53;;;1.13;;
422;SDS011;198;48.752;9.180;2023-11-19T18:33:08;3.07;;;1.37;;
422;SDS011;198;48.752;9.180;2023-11-19T18:35:34;2.27;;;1.20;;
422;SDS011;198;48.752;9.180;2023-11-19T18:37:59;1.23;;;1.07;;
422;SDS011;198;48.752;9.180;2023-11-19T18:40:25;2.70;;;1.37;;
422;SDS011;198;48.752;9.180;2023-11-19T18:42:51;2.63;;;1.17;;
422;SDS011;198;48.752;9.180;2023-11-19T18:45:16;1.70;;;1.20;;
422;SDS011;198;48.752;9.180;2023-11-19T18:47:44;3.87;;;1.53;;
422;SDS011;198;48.752;9.180;2023-11-19T18:50:10;2.53;;;1.33;;
422;SDS011;198;48.752;9.180;2023-11-19T18:52:35;6.63;;;1.40;;
422;SDS011;198;48.752;9.180;2023-11-19T18:55:01;2.20;;;1.47;;
422;SDS011;198;48.752;9.180;2023-11-19T18:57:29;2.63;;;1.50;;
422;SDS011;198;48.752;9.180;2023-11-19T18:59:55;6.33;;;1.40;;
422;SDS011;198;48.752;9.180;2023-11-19T19:02:21;2.03;;;1.50;;
422;SDS011;198;48.752;9.180;2023-11-19T19:04:46;6.33;;;1.93;;
422;SDS011;198;48.752;9.180;2023-11-19T19:07:12;2.00;;;1.50;;
422;SDS011;198;48.752;9.180;2023-11-19T19:09:38;2.57;;;1.53;;
422;SDS011;198;48.752;9.180;2023-11-19T19:12:04;1.37;;;1.30;;
422;SDS011;198;48.752;9.180;2023-11-19T19:14:30;2.60;;;1.60;;
422;SDS011;198;48.752;9.180;2023-11-19T19:16:56;2.17;;;1.43;;
422;SDS011;198;48.752;9.180;2023-11-19T19:19:22;3.83;;;1.70;;
422;SDS011;198;48.752;9.180;2023-11-19T19:21:48;6.23;;;1.80;;
422;SDS011;198;48.752;9.180;2023-11-19T19:24:13;4.80;;;1.97;;
422;SDS011;198;48.752;9.180;2023-11-19T19:26:39;3.80;;;1.70;;
422;SDS011;198;48.752;9.180;2023-11-19T19:29:06;3.33;;;1.50;;
422;SDS011;198;48.752;9.180;2023-11-19T19:31:32;6.00;;;1.63;;
422;SDS011;198;48.752;9.180;2023-11-19T19:33:57;2.17;;;1.40;;
422;SDS011;198;48.752;9.180;2023-11-19T19:36:27;12.57;;;1.90;;
422;SDS011;198;48.752;9.180;2023-11-19T19:38:57;2.97;;;1.60;;
422;SDS011;198;48.752;9.180;2023-11-19T19:41:23;6.70;;;1.80;;
422;SDS011;198;48.752;9.180;2023-11-19T19:43:51;3.87;;;1.80;;
422;SDS011;198;48.752;9.180;2023-11-19T19:46:16;2.20;;;1.10;;
422;SDS011;198;48.752;9.180;2023-11-19T19:48:42;1.73;;;1.40;;
422;SDS011;198;48.752;9.180;2023-11-19T19:51:09;2.37;;;1.53;;
422;SDS011;198;48.752;9.180;2023-11-19T19:53:35;2.10;;;1.30;;
422;SDS011;198;48.752;9.180;2023-11-19T19:56:02;3.27;;;1.63;;
422;SDS011;198;48.752;9.180;2023-11-19T19:58:32;6.07;;;2.70;;
422;SDS011;198;48.752;9.180;2023-11-19T20:00:58;3.33;;;1.50;;
422;SDS011;198;48.752;9.180;2023-11-19T20:03:24;4.13;;;1.37;;
422;SDS011;198;48.752;9.180;2023-11-19T20:05:50;2.63;;;1.40;;
422;SDS011;198;48.752;9.180;2023-11-19T20:08:15;4.20;;;1.23;;
422;SDS011;198;48.752;9.180;2023-11-19T20:10:41;9.53;;;1.40;;
422;SDS011;198;48.752;9.180;2023-11-19T20:13:06;3.53;;;1.60;;
422;SDS011;198;48.752;9.180;2023-11-19T20:15:35;3.70;;;1.13;;
422;SDS011;198;48.752;9.180;2023-11-19T20:18:02;2.90;;;1.03;;
422;SDS011;198;48.752;9.180;2023-11-19T20:20:28;8.90;;;1.60;;
422;SDS011;198;48.752;9.180;2023-11-19T20:22:54;6.87;;;1.27;;
422;SDS011;198;48.752;9.180;2023-11-19T20:25:19;4.43;;;1.50;;
422;SDS011;198;48.752;9.180;2023-11-19T20:27:45;6.17;;;1.50;;
422;SDS011;198;48.752;9.180;2023-11-19T20:30:10;3.00;;;1.20;;
422;SDS011;198;48.752;9.180;2023-11-19T20:32:36;1.73;;;1.20;;
422;SDS011;198;48.752;9.180;2023-11-19T20:35:03;5.30;;;1.33;;
422;SDS011;198;48.752;9.180;2023-11-19T20:37:32;4.53;;;1.27;;
422;SDS011;198;48.752;9.180;2023-11-19T20:40:01;3.20;;;1.10;;
422;SDS011;198;48.752;9.180;2023-11-19T20:42:29;3.33;;;1.10;;
422;SDS011;198;48.752;9.180;2023-11-19T20:44:55;1.97;;;1.30;;
422;SDS011;198;48.752;9.180;2023-11-19T20:47:20;8.30;;;1.60;;
422;SDS011;198;48.752;9.180;2023-11-19T20:49:46;6.10;;;1.37;;
422;SDS011;198;48.752;9.180;2023-11-19T20:52:12;6.70;;;1.70;;
422;SDS011;198;48.752;9.180;2023-11-19T20:54:37;13.23;;;1.87;;
422;SDS011;198;48.752;9.180;2023-11-19T20:57:03;9.03;;;1.67;;
422;SDS011;198;48.752;9.180;2023-11-19T20:59:29;3.73;;;1.40;;
422;SDS011;198;48.752;9.180;2023-11-19T21:01:55;3.60;;;1.57;;
422;SDS011;198;48.752;9.180;2023-11-19T21:04:20;2.63;;;1.60;;
422;SDS011;198;48.752;9.180;2023-11-19T21:06:45;5.70;;;1.70;;
422;SDS011;198;48.752;9.180;2023-11-19T21:09:12;9.47;;;2.53;;
422;SDS011;198;48.752;9.180;2023-11-19T21:11:40;4.80;;;1.80;;
422;SDS011;198;48.752;9.180;2023-11-19T21:14:06;6.00;;;2.13;;
422;SDS011;198;48.752;9.180;2023-11-19T21:16:33;17.80;;;2.50;;